Time;durP1;ratioP1;P1;durP2;ratioP2;P2;SDS_P1;SDS_P2;PMS_P1;PMS_P2;Temp;Humidity;BMP_temperature;BMP_pressure;BME280_temperature;BME280_humidity;BME280_pressure;Samples;Min_cycle;Max_cycle;Signal;HPM_P1;HPM_P2
2023/03/04 00:01:52;;;;;;;1999.90;999.90;;;-1.30;99.90;;;;;;5081210;28;20021;-83
2023/03/04 00:04:18;;;;;;;1999.90;999.90;;;-1.30;99.90;;;;;;5073167;28;20033;-81
2023/03/04 00:06:44;;;;;;;1999.90;999.90;;;-1.20;99.90;;;;;;5082274;28;20483;-81
2023/03/04 00:09:09;;;;;;;1999.90;999.90;;;-1.20;99.90;;;;;;5076028;28;20549;-80
2023/03/04 00:11:35;;;;;;;1999.90;999.90;;;-1.30;99.90;;;;;;5080750;28;20037;-79
2023/03/04 00:14:00;;;;;;;1999.90;999.90;;;-1.40;99.90;;;;;;5078706;28;20065;-78
2023/03/04 00:16:26;;;;;;;1999.90;999.90;;;-1.40;99.90;;;;;;5076590;28;20033;-79
2023/03/04 00:18:55;;;;;;;1999.90;999.90;;;-1.40;99.90;;;;;;5077546;28;20116;-76
2023/03/04 00:21:21;;;;;;;1999.90;999.90;;;-1.50;99.90;;;;;;5074055;28;20491;-76
2023/03/04 00:23:47;;;;;;;1999.90;999.90;;;-1.40;99.90;;;;;;5075877;28;20041;-77
2023/03/04 00:26:13;;;;;;;1999.90;999.90;;;-1.40;99.90;;;;;;5075261;28;20037;-79
2023/03/04 00:28:39;;;;;;;1999.90;999.90;;;-1.50;99.90;;;;;;5073180;28;20442;-79
2023/03/04 00:31:05;;;;;;;1999.90;999.90;;;-1.50;99.90;;;;;;5075205;28;20028;-82
2023/03/04 00:33:31;;;;;;;1999.90;999.90;;;-1.50;99.90;;;;;;5073712;28;20037;-77
2023/03/04 00:35:57;;;;;;;1999.90;999.90;;;-1.60;99.90;;;;;;5073428;28;20037;-80
2023/03/04 00:38:22;;;;;;;1999.90;999.90;;;-1.60;99.90;;;;;;5077114;28;20040;-79
2023/03/04 00:40:48;;;;;;;1999.90;999.90;;;-1.60;99.90;;;;;;5075929;28;20029;-81
2023/03/04 00:43:13;;;;;;;1999.90;999.90;;;-1.70;99.90;;;;;;5076068;28;20402;-81
2023/03/04 00:45:39;;;;;;;1999.90;999.90;;;-1.70;99.90;;;;;;5074420;28;20084;-78
2023/03/04 00:48:04;;;;;;;1999.90;999.90;;;-1.70;99.90;;;;;;5075923;28;20040;-79
2023/03/04 00:50:30;;;;;;;1999.90;999.90;;;-1.80;99.90;;;;;;5069227;28;20028;-78
2023/03/04 00:52:56;;;;;;;1999.90;999.90;;;-1.90;99.90;;;;;;5076392;28;20052;-80
2023/03/04 00:55:21;;;;;;;1999.90;999.90;;;-1.90;99.90;;;;;;5074150;28;20041;-78
2023/03/04 00:57:47;;;;;;;1999.90;999.90;;;-1.80;99.90;;;;;;5070067;28;20383;-78
2023/03/04 01:00:13;;;;;;;1999.90;999.90;;;-1.90;99.90;;;;;;5079729;28;20032;-78
2023/03/04 01:02:39;;;;;;;1999.90;999.90;;;-1.90;99.90;;;;;;5075738;28;20055;-77
2023/03/04 01:05:05;;;;;;;1999.90;999.90;;;-1.80;99.90;;;;;;5075418;28;20052;-75
2023/03/04 01:07:31;;;;;;;1999.90;999.90;;;-1.80;99.90;;;;;;5074909;28;20044;-75
2023/03/04 01:09:56;;;;;;;1999.90;999.90;;;-1.80;99.90;;;;;;5076033;28;20052;-76
2023/03/04 01:12:22;;;;;;;1999.90;999.90;;;-1.80;99.90;;;;;;5076901;28;20021;-77
2023/03/04 01:14:48;;;;;;;1999.90;999.90;;;-1.80;99.90;;;;;;5074863;28;20037;-78
2023/03/04 01:17:13;;;;;;;1999.90;999.90;;;-1.70;99.90;;;;;;5075467;28;20061;-76
2023/03/04 01:19:39;;;;;;;1999.90;999.90;;;-1.70;99.90;;;;;;5073231;28;20130;-79
2023/03/04 01:22:04;;;;;;;1999.90;999.90;;;-1.70;99.90;;;;;;5067409;28;20034;-78
2023/03/04 01:24:30;;;;;;;1999.90;999.90;;;-1.80;99.90;;;;;;5070693;28;20123;-78
2023/03/04 01:26:56;;;;;;;1999.90;999.90;;;-1.90;99.90;;;;;;5074350;28;20090;-78
2023/03/04 01:29:22;;;;;;;1999.90;999.90;;;-1.90;99.90;;;;;;5073969;28;20029;-78
2023/03/04 01:31:47;;;;;;;1999.90;999.90;;;-1.90;99.90;;;;;;5076592;28;20406;-78
2023/03/04 01:34:13;;;;;;;1999.90;999.90;;;-1.90;99.90;;;;;;5074973;28;20123;-78
2023/03/04 01:36:38;;;;;;;1999.90;999.90;;;-2.00;99.90;;;;;;5076282;28;20063;-78
2023/03/04 01:39:04;;;;;;;1999.90;999.90;;;-2.20;99.90;;;;;;5074642;28;20131;-78
2023/03/04 01:41:30;;;;;;;1999.90;999.90;;;-2.20;99.90;;;;;;5075075;28;20033;-78
2023/03/04 01:43:57;;;;;;;1999.90;999.90;;;-2.20;99.90;;;;;;5075986;28;20530;-78
2023/03/04 01:46:23;;;;;;;1999.90;999.90;;;-2.30;99.90;;;;;;5074907;28;20037;-78
2023/03/04 01:48:49;;;;;;;1999.90;999.90;;;-2.40;99.90;;;;;;5074812;28;20033;-79
2023/03/04 01:51:17;;;;;;;1999.90;999.90;;;-2.40;99.90;;;;;;5076327;28;20091;-78
2023/03/04 01:53:45;;;;;;;1999.90;999.90;;;-2.60;99.90;;;;;;5074785;28;20046;-78
2023/03/04 01:56:15;;;;;;;1999.90;999.90;;;-2.50;99.90;;;;;;5076110;28;20111;-78
2023/03/04 01:58:41;;;;;;;1999.90;999.90;;;-2.50;99.90;;;;;;5066650;28;20029;-78
2023/03/04 02:01:09;;;;;;;1999.90;999.90;;;-2.50;99.90;;;;;;5086898;28;20091;-78
2023/03/04 02:03:35;;;;;;;1999.90;999.90;;;-2.40;99.90;;;;;;5083302;28;20041;-78
2023/03/04 02:06:01;;;;;;;1999.90;999.90;;;-2.50;99.90;;;;;;5085967;28;20033;-79
2023/03/04 02:08:26;;;;;;;1999.90;999.90;;;-2.50;99.90;;;;;;5077294;28;20037;-79
2023/03/04 02:10:53;;;;;;;1999.90;999.90;;;-2.50;99.90;;;;;;5066914;28;20503;-79
2023/03/04 02:13:19;;;;;;;1999.90;999.90;;;-2.60;99.90;;;;;;5079198;28;20564;-78
2023/03/04 02:15:45;;;;;;;1999.90;999.90;;;-2.70;99.90;;;;;;5078403;28;20104;-78
2023/03/04 02:18:22;;;;;;;1999.90;999.90;;;-2.60;99.90;;;;;;5077560;28;20029;-78
2023/03/04 02:21:11;;;;;;;1999.90;999.90;;;-2.80;99.90;;;;;;5078747;28;20033;-79
2023/03/04 02:23:45;;;;;;;1999.90;999.90;;;-2.90;99.90;;;;;;5077444;28;20136;-78
2023/03/04 02:26:16;;;;;;;1999.90;999.90;;;-2.80;99.90;;;;;;5078847;28;20072;-78
2023/03/04 02:28:43;;;;;;;1999.90;999.90;;;-2.80;99.90;;;;;;5078650;28;20115;-79
2023/03/04 02:31:48;;;;;;;1999.90;999.90;;;-2.90;99.90;;;;;;5076206;28;20072;-78
2023/03/04 02:34:44;;;;;;;1999.90;999.90;;;-3.00;99.90;;;;;;5077180;28;20045;-78
2023/03/04 02:37:11;;;;;;;1999.90;999.90;;;-3.00;99.90;;;;;;5077856;28;20082;-79
2023/03/04 02:39:42;;;;;;;1999.90;999.90;;;-2.90;99.90;;;;;;5077502;28;20036;-78
2023/03/04 02:42:08;;;;;;;1999.90;999.90;;;-2.90;99.90;;;;;;5077677;28;20071;-78
2023/03/04 02:44:36;;;;;;;1999.90;999.90;;;-2.80;99.90;;;;;;5078167;28;20128;-79
2023/03/04 02:47:05;;;;;;;1999.90;999.90;;;-2.80;99.90;;;;;;5076738;28;20033;-79
2023/03/04 02:49:32;;;;;;;1999.90;999.90;;;-2.90;99.90;;;;;;5078795;28;20048;-78
2023/03/04 02:52:03;;;;;;;1999.90;999.90;;;-2.90;99.90;;;;;;5078699;28;20036;-78
2023/03/04 02:54:28;;;;;;;1999.90;999.90;;;-2.90;99.90;;;;;;5076849;28;20492;-78
2023/03/04 02:56:57;;;;;;;1999.90;999.90;;;-2.90;99.90;;;;;;5076503;28;20051;-78
2023/03/04 02:59:23;;;;;;;1999.90;999.90;;;-2.80;99.90;;;;;;5078449;28;20103;-78
2023/03/04 03:01:49;;;;;;;1999.90;999.90;;;-2.90;99.90;;;;;;5079014;28;20033;-79
2023/03/04 03:04:15;;;;;;;1999.90;999.90;;;-2.90;99.90;;;;;;5074714;28;20045;-79
2023/03/04 03:06:41;;;;;;;1999.90;999.90;;;-2.90;99.90;;;;;;5058293;28;20029;-78
2023/03/04 03:09:07;;;;;;;1999.90;999.90;;;-2.90;99.90;;;;;;5058272;28;20040;-79
2023/03/04 03:11:33;;;;;;;1999.90;999.90;;;-3.00;99.90;;;;;;5078337;28;20036;-78
2023/03/04 03:13:59;;;;;;;1999.90;999.90;;;-3.00;99.90;;;;;;5077990;28;20045;-79
2023/03/04 03:16:24;;;;;;;1999.90;999.90;;;-3.10;99.90;;;;;;5078084;28;20372;-79
2023/03/04 03:18:50;;;;;;;1999.90;999.90;;;-3.10;99.90;;;;;;5057398;28;20034;-79
2023/03/04 03:21:15;;;;;;;1999.90;999.90;;;-3.00;99.90;;;;;;5077815;28;20031;-79
2023/03/04 03:23:42;;;;;;;1999.90;999.90;;;-2.90;99.90;;;;;;5078674;28;20047;-78
2023/03/04 03:26:08;;;;;;;1999.90;999.90;;;-3.00;99.90;;;;;;5058454;28;20057;-79
2023/03/04 03:28:33;;;;;;;1999.90;999.90;;;-3.00;99.90;;;;;;5063997;28;20064;-78
2023/03/04 03:30:59;;;;;;;1999.90;999.90;;;-3.10;99.90;;;;;;5078553;28;20029;-79
2023/03/04 03:33:24;;;;;;;1999.90;999.90;;;-3.30;99.90;;;;;;5077433;28;20044;-79
2023/03/04 03:35:50;;;;;;;1999.90;999.90;;;-3.40;99.90;;;;;;5078191;28;20037;-79
2023/03/04 03:38:16;;;;;;;1999.90;999.90;;;-3.30;99.90;;;;;;5074434;28;20029;-79
2023/03/04 03:40:41;;;;;;;1999.90;999.90;;;-3.30;99.90;;;;;;5056421;28;20059;-78
2023/03/04 03:43:06;;;;;;;1999.90;999.90;;;-3.30;99.90;;;;;;5058246;28;20045;-78
2023/03/04 03:45:32;;;;;;;1999.90;999.90;;;-3.20;99.90;;;;;;5064087;28;20068;-78
2023/03/04 03:47:58;;;;;;;1999.90;999.90;;;-3.30;99.90;;;;;;5075942;28;20033;-79
2023/03/04 03:50:23;;;;;;;1999.90;999.90;;;-3.30;99.90;;;;;;5076909;28;20049;-78
2023/03/04 03:52:49;;;;;;;1999.90;999.90;;;-3.30;99.90;;;;;;5078463;28;20128;-78
2023/03/04 03:55:14;;;;;;;1999.90;999.90;;;-3.30;99.90;;;;;;5074804;28;20048;-78
2023/03/04 03:57:40;;;;;;;1999.90;999.90;;;-3.30;99.90;;;;;;5078270;28;20043;-79
2023/03/04 04:00:07;;;;;;;1999.90;999.90;;;-3.20;99.90;;;;;;5072239;28;20092;-78
2023/03/04 04:02:32;;;;;;;1999.90;999.90;;;-3.40;99.90;;;;;;5074721;28;20077;-79
2023/03/04 04:04:58;;;;;;;1999.90;999.90;;;-3.40;99.90;;;;;;5061130;28;20116;-78
2023/03/04 04:07:24;;;;;;;1999.90;999.90;;;-3.40;99.90;;;;;;5072436;28;20121;-78
2023/03/04 04:09:49;;;;;;;1999.90;999.90;;;-3.40;99.90;;;;;;5075464;28;20039;-78
2023/03/04 04:12:16;;;;;;;1999.90;999.90;;;-3.50;99.90;;;;;;5076628;28;20120;-78
2023/03/04 04:14:41;;;;;;;1999.90;999.90;;;-3.50;99.90;;;;;;5075221;28;20163;-79
2023/03/04 04:17:08;;;;;;;1999.90;999.90;;;-3.40;99.90;;;;;;5075378;28;20133;-78
2023/03/04 04:19:34;;;;;;;1999.90;999.90;;;-3.40;99.90;;;;;;5074327;28;20880;-78
2023/03/04 04:21:59;;;;;;;1999.90;999.90;;;-3.40;99.90;;;;;;5071408;28;20072;-78
2023/03/04 04:24:25;;;;;;;1999.90;999.90;;;-3.50;99.90;;;;;;5074011;28;20037;-78
2023/03/04 04:26:50;;;;;;;1999.90;999.90;;;-3.60;99.90;;;;;;5081294;28;20033;-78
2023/03/04 04:29:16;;;;;;;1999.90;999.90;;;-3.60;99.90;;;;;;5069236;22;20046;-74
2023/03/04 04:31:42;;;;;;;1999.90;999.90;;;-3.50;99.90;;;;;;5058096;28;20044;-74
2023/03/04 04:34:07;;;;;;;1999.90;999.90;;;-3.60;99.90;;;;;;5061008;28;20041;-74
2023/03/04 04:36:33;;;;;;;1999.90;999.90;;;-3.60;99.90;;;;;;5037135;28;20092;-74
2023/03/04 04:38:58;;;;;;;1999.90;999.90;;;-3.60;99.90;;;;;;5045974;28;20045;-74
2023/03/04 04:41:28;;;;;;;1999.90;999.90;;;-3.60;99.90;;;;;;5055200;28;20554;-74
2023/03/04 04:43:54;;;;;;;1999.90;999.90;;;-3.50;99.90;;;;;;5043672;28;20068;-74
2023/03/04 04:46:20;;;;;;;1999.90;999.90;;;-3.60;99.90;;;;;;5054871;28;20076;-74
2023/03/04 04:48:45;;;;;;;1999.90;999.90;;;-3.70;99.90;;;;;;5053950;28;20092;-73
2023/03/04 04:51:11;;;;;;;1999.90;999.90;;;-3.70;99.90;;;;;;5053455;28;20904;-74
2023/03/04 04:53:37;;;;;;;1999.90;999.90;;;-3.60;99.90;;;;;;5053989;28;20572;-74
2023/03/04 04:56:10;;;;;;;1999.90;999.90;;;-3.60;99.90;;;;;;5054605;28;20033;-74
2023/03/04 04:58:36;;;;;;;1999.90;999.90;;;-3.60;99.90;;;;;;5052536;28;20124;-74
2023/03/04 05:01:02;;;;;;;1999.90;999.90;;;-3.70;99.90;;;;;;5054877;28;20034;-74
2023/03/04 05:03:27;;;;;;;1999.90;999.90;;;-3.90;99.90;;;;;;5053320;28;20076;-74
2023/03/04 05:05:53;;;;;;;1999.90;999.90;;;-3.80;99.90;;;;;;5053275;28;20155;-74
2023/03/04 05:08:18;;;;;;;1999.90;999.90;;;-3.70;99.90;;;;;;5053474;28;20049;-74
2023/03/04 05:10:44;;;;;;;1999.90;999.90;;;-3.60;99.90;;;;;;5054421;28;20033;-74
2023/03/04 05:13:09;;;;;;;1999.90;999.90;;;-3.40;99.90;;;;;;5052240;28;20045;-74
2023/03/04 05:15:37;;;;;;;1999.90;999.90;;;-3.20;99.90;;;;;;5051514;28;20128;-74
2023/03/04 05:18:02;;;;;;;1999.90;999.90;;;-2.80;99.90;;;;;;5035597;28;20038;-74
2023/03/04 05:20:28;;;;;;;1999.90;999.90;;;-2.60;99.90;;;;;;5054330;28;20034;-74
2023/03/04 05:22:53;;;;;;;1999.90;999.90;;;-2.50;99.90;;;;;;5051915;28;20116;-74
2023/03/04 05:25:19;;;;;;;1999.90;999.90;;;-2.30;99.90;;;;;;5053344;28;20507;-74
2023/03/04 05:27:44;;;;;;;1999.90;999.90;;;-2.10;99.90;;;;;;5053274;28;20444;-74
2023/03/04 05:30:11;;;;;;;1999.90;999.90;;;-2.00;99.90;;;;;;5052587;28;20049;-74
2023/03/04 05:32:36;;;;;;;1999.90;999.90;;;-1.90;99.90;;;;;;5051927;28;20034;-74
2023/03/04 05:35:02;;;;;;;1999.90;999.90;;;-1.80;99.90;;;;;;5052570;28;24134;-74
2023/03/04 05:37:27;;;;;;;1999.90;999.90;;;-1.60;99.90;;;;;;5053561;28;20067;-74
2023/03/04 05:39:53;;;;;;;1999.90;999.90;;;-1.60;99.90;;;;;;5053614;28;20072;-74
2023/03/04 05:42:18;;;;;;;1999.90;999.90;;;-1.60;99.90;;;;;;5052821;28;20120;-74
2023/03/04 05:44:44;;;;;;;1999.90;999.90;;;-1.50;99.90;;;;;;5051713;28;20041;-74
2023/03/04 05:47:09;;;;;;;1999.90;999.90;;;-1.50;99.90;;;;;;5051136;28;20390;-74
2023/03/04 05:49:35;;;;;;;1999.90;999.90;;;-1.30;99.90;;;;;;5048550;28;20069;-74
2023/03/04 05:52:00;;;;;;;1999.90;999.90;;;-1.30;99.90;;;;;;5053579;28;20498;-74
2023/03/04 05:54:26;;;;;;;1999.90;999.90;;;-1.20;99.90;;;;;;5052674;28;20091;-74
2023/03/04 05:56:51;;;;;;;1999.90;999.90;;;-1.20;99.90;;;;;;5053846;28;23495;-74
2023/03/04 05:59:19;;;;;;;1999.90;999.90;;;-1.40;99.90;;;;;;5044570;28;20151;-74
2023/03/04 06:01:45;;;;;;;1999.90;999.90;;;-1.60;99.90;;;;;;5054325;28;20376;-76
2023/03/04 06:04:11;;;;;;;1999.90;999.90;;;-1.60;99.90;;;;;;5053558;28;20037;-76
2023/03/04 06:06:36;;;;;;;1999.90;999.90;;;-1.60;99.90;;;;;;5052310;28;20438;-76
2023/03/04 06:09:02;;;;;;;1999.90;999.90;;;-1.60;99.90;;;;;;5053157;28;20064;-75
2023/03/04 06:11:28;;;;;;;1999.90;999.90;;;-1.60;99.90;;;;;;5052631;28;20060;-75
2023/03/04 06:13:53;;;;;;;1999.90;999.90;;;-1.60;99.90;;;;;;5053433;28;20065;-76
2023/03/04 06:16:19;;;;;;;1999.90;999.90;;;-1.40;99.90;;;;;;5052470;28;20494;-76
2023/03/04 06:18:44;;;;;;;1999.90;999.90;;;-1.30;99.90;;;;;;5053303;28;22979;-76
2023/03/04 06:21:10;;;;;;;1999.90;999.90;;;-1.20;99.90;;;;;;5054155;28;20092;-76
2023/03/04 06:23:36;;;;;;;1999.90;999.90;;;-1.00;99.90;;;;;;5053613;28;20037;-76
2023/03/04 06:26:02;;;;;;;1999.90;999.90;;;-0.90;99.90;;;;;;5053823;28;20876;-75
2023/03/04 06:28:28;;;;;;;1999.90;999.90;;;-0.80;99.90;;;;;;5052789;28;20041;-76
2023/03/04 06:30:55;;;;;;;1999.90;999.90;;;-0.80;99.90;;;;;;5053919;28;20037;-76
2023/03/04 06:33:21;;;;;;;1999.90;999.90;;;-0.70;99.90;;;;;;5064968;28;20033;-76
2023/03/04 06:35:46;;;;;;;1999.90;999.90;;;-0.60;99.90;;;;;;5047858;28;20048;-77
2023/03/04 06:38:12;;;;;;;1999.90;999.90;;;-0.40;99.90;;;;;;5054980;28;20080;-75
2023/03/04 06:40:38;;;;;;;1999.90;999.90;;;-0.40;99.90;;;;;;5055592;28;20034;-76
2023/03/04 06:43:04;;;;;;;1999.90;999.90;;;-0.30;99.90;;;;;;5055630;28;20509;-77
2023/03/04 06:45:29;;;;;;;1999.90;999.90;;;-0.20;99.90;;;;;;5054130;28;20049;-73
2023/03/04 06:47:55;;;;;;;1999.90;999.90;;;-0.20;99.90;;;;;;5057071;28;20562;-73
2023/03/04 06:50:20;;;;;;;1999.90;999.90;;;-0.20;99.90;;;;;;5058962;28;20116;-74
2023/03/04 06:52:46;;;;;;;1999.90;999.90;;;-0.10;99.90;;;;;;5055377;28;20030;-73
2023/03/04 06:55:11;;;;;;;1999.90;999.90;;;-0.10;99.90;;;;;;5055943;28;20037;-76
2023/03/04 06:57:37;;;;;;;1999.90;999.90;;;-0.10;99.90;;;;;;5054940;28;20065;-76
2023/03/04 07:00:04;;;;;;;1999.90;999.90;;;-0.10;99.90;;;;;;5057521;28;20125;-75
2023/03/04 07:02:30;;;;;;;1999.90;999.90;;;-0.10;99.90;;;;;;5056997;28;20499;-77
2023/03/04 07:04:55;;;;;;;1999.90;999.90;;;0.00;99.90;;;;;;5057555;28;20069;-81
2023/03/04 07:07:21;;;;;;;1999.90;999.90;;;0.00;99.90;;;;;;5056752;28;20041;-75
2023/03/04 07:09:46;;;;;;;1999.90;999.90;;;0.10;99.90;;;;;;5057697;28;20037;-78
2023/03/04 07:12:12;;;;;;;1999.90;999.90;;;0.10;99.90;;;;;;5058103;28;20556;-79
2023/03/04 07:14:37;;;;;;;1999.90;999.90;;;0.10;99.90;;;;;;5053520;28;20941;-79
2023/03/04 07:17:03;;;;;;;1999.90;999.90;;;0.20;99.90;;;;;;5038118;28;20030;-79
2023/03/04 07:19:29;;;;;;;1999.90;999.90;;;0.20;99.90;;;;;;5039898;28;20026;-80
2023/03/04 07:21:54;;;;;;;1999.90;999.90;;;0.30;99.90;;;;;;5038610;28;20030;-79
2023/03/04 07:24:20;;;;;;;1999.90;999.90;;;0.40;99.90;;;;;;5035717;28;20041;-77
2023/03/04 07:26:45;;;;;;;1999.90;999.90;;;0.60;99.90;;;;;;5035925;28;20515;-78
2023/03/04 07:29:11;;;;;;;1999.90;999.90;;;0.60;99.90;;;;;;5034520;28;20042;-77
2023/03/04 07:31:37;;;;;;;1999.90;999.90;;;0.80;99.90;;;;;;5039827;28;20112;-78
2023/03/04 07:34:05;;;;;;;1999.90;999.90;;;0.80;99.90;;;;;;5072121;28;20034;-78
2023/03/04 07:36:34;;;;;;;1999.90;999.90;;;0.90;99.90;;;;;;5055778;28;20805;-78
2023/03/04 07:38:59;;;;;;;1999.90;999.90;;;1.00;99.90;;;;;;5055485;28;20047;-78
2023/03/04 07:41:27;;;;;;;1999.90;999.90;;;1.10;99.90;;;;;;5056790;28;20030;-78
2023/03/04 07:43:52;;;;;;;1999.90;999.90;;;1.10;99.90;;;;;;5056764;28;20048;-78
2023/03/04 07:46:18;;;;;;;1999.90;999.90;;;1.10;99.90;;;;;;5058297;28;20084;-77
2023/03/04 07:48:44;;;;;;;1999.90;999.90;;;1.20;99.90;;;;;;5056815;28;20035;-78
2023/03/04 07:51:12;;;;;;;1999.90;999.90;;;1.20;99.90;;;;;;5058931;28;20032;-76
2023/03/04 07:53:39;;;;;;;1999.90;999.90;;;1.30;99.90;;;;;;5057719;28;20045;-77
2023/03/04 07:56:06;;;;;;;1999.90;999.90;;;1.40;99.90;;;;;;5057183;28;20041;-77
2023/03/04 07:58:32;;;;;;;1999.90;999.90;;;1.40;99.90;;;;;;5057754;28;20038;-77
2023/03/04 08:00:58;;;;;;;1999.90;999.90;;;1.30;99.90;;;;;;5057710;28;20487;-77
2023/03/04 08:03:24;;;;;;;1999.90;999.90;;;1.40;99.90;;;;;;5059538;28;20491;-77
2023/03/04 08:05:50;;;;;;;1999.90;999.90;;;1.50;99.90;;;;;;5054423;28;20038;-75
2023/03/04 08:08:16;;;;;;;1999.90;999.90;;;1.50;99.90;;;;;;5035140;28;20056;-77
2023/03/04 08:10:42;;;;;;;1999.90;999.90;;;1.50;99.90;;;;;;5035573;28;20480;-80
2023/03/04 08:13:08;;;;;;;1999.90;999.90;;;1.60;99.90;;;;;;5036397;28;20041;-76
2023/03/04 08:15:38;;;;;;;1999.90;999.90;;;1.60;99.90;;;;;;5036080;28;20037;-77
2023/03/04 08:18:03;;;;;;;1999.90;999.90;;;1.60;99.90;;;;;;5035470;28;20041;-77
2023/03/04 08:20:29;;;;;;;1999.90;999.90;;;1.50;99.90;;;;;;5058752;28;20038;-77
2023/03/04 08:22:54;;;;;;;1999.90;999.90;;;1.50;99.90;;;;;;5055792;28;20487;-77
2023/03/04 08:25:20;;;;;;;1999.90;999.90;;;1.50;99.90;;;;;;5055009;28;20096;-77
2023/03/04 08:27:45;;;;;;;1999.90;999.90;;;1.50;99.90;;;;;;5055227;28;20037;-77
2023/03/04 08:30:11;;;;;;;1999.90;999.90;;;1.50;99.90;;;;;;5055439;28;20083;-77
2023/03/04 08:32:36;;;;;;;1999.90;999.90;;;1.60;99.90;;;;;;5055286;28;20368;-77
2023/03/04 08:35:02;;;;;;;1999.90;999.90;;;1.80;99.90;;;;;;5055182;28;20040;-78
2023/03/04 08:37:31;;;;;;;1999.90;999.90;;;2.00;99.90;;;;;;5053824;28;20120;-77
2023/03/04 08:39:56;;;;;;;1999.90;999.90;;;2.10;99.90;;;;;;5054439;28;20030;-77
2023/03/04 08:42:23;;;;;;;1999.90;999.90;;;2.30;99.90;;;;;;5056465;28;20499;-77
2023/03/04 08:44:48;;;;;;;1999.90;999.90;;;2.40;99.90;;;;;;5058335;28;20038;-77
2023/03/04 08:47:14;;;;;;;1999.90;999.90;;;2.40;99.90;;;;;;5059178;28;20029;-77
2023/03/04 08:49:39;;;;;;;1999.90;999.90;;;2.80;99.90;;;;;;5056041;28;20517;-77
2023/03/04 08:52:05;;;;;;;1999.90;999.90;;;2.80;99.90;;;;;;5055466;28;20033;-77
2023/03/04 08:54:31;;;;;;;1999.90;999.90;;;3.00;99.90;;;;;;5055689;28;20049;-78
2023/03/04 08:56:56;;;;;;;1999.90;999.90;;;3.00;99.90;;;;;;5054712;28;20037;-78
2023/03/04 08:59:22;;;;;;;1999.90;999.90;;;3.10;99.90;;;;;;5055631;28;20194;-78
2023/03/04 09:01:47;;;;;;;1999.90;999.90;;;3.20;99.90;;;;;;5054719;28;20041;-78
2023/03/04 09:04:13;;;;;;;1999.90;999.90;;;3.20;99.90;;;;;;5055503;28;20064;-79
2023/03/04 09:06:38;;;;;;;1999.90;999.90;;;3.30;99.90;;;;;;5055604;28;20065;-79
2023/03/04 09:09:04;;;;;;;1999.90;999.90;;;3.40;99.90;;;;;;5053446;28;20057;-79
2023/03/04 09:11:30;;;;;;;1999.90;999.90;;;3.40;99.90;;;;;;5055305;28;20097;-79
2023/03/04 09:13:55;;;;;;;1999.90;999.90;;;3.50;99.90;;;;;;5055372;28;20038;-79
2023/03/04 09:16:22;;;;;;;1999.90;999.90;;;3.60;99.90;;;;;;5055369;28;20029;-79
2023/03/04 09:18:47;;;;;;;1999.90;999.90;;;3.70;99.90;;;;;;5053470;28;20042;-79
2023/03/04 09:21:13;;;;;;;1999.90;999.90;;;3.80;99.90;;;;;;5053779;28;20021;-79
2023/03/04 09:23:39;;;;;;;1999.90;999.90;;;3.80;99.90;;;;;;5054603;28;20045;-79
2023/03/04 09:26:23;;;;;;;1999.90;999.90;;;3.90;99.90;;;;;;5054335;28;20054;-79
2023/03/04 09:28:54;;;;;;;1999.90;999.90;;;4.00;99.90;;;;;;5053929;28;20041;-79
2023/03/04 09:31:20;;;;;;;1999.90;999.90;;;4.10;99.90;;;;;;5053330;28;20026;-79
2023/03/04 09:33:49;;;;;;;1999.90;999.90;;;4.10;99.90;;;;;;5054578;28;20048;-79
2023/03/04 09:36:23;;;;;;;1999.90;999.90;;;4.10;99.90;;;;;;5054848;28;20037;-79
2023/03/04 09:38:54;;;;;;;1999.90;999.90;;;4.20;99.90;;;;;;5053696;28;20035;-79
2023/03/04 09:41:36;;;;;;;1999.90;999.90;;;4.30;99.90;;;;;;5053875;28;20064;-79
2023/03/04 09:44:23;;;;;;;1999.90;999.90;;;4.40;99.90;;;;;;5053271;28;20047;-79
2023/03/04 09:46:50;;;;;;;1999.90;999.90;;;4.50;99.90;;;;;;5053540;28;20029;-79
2023/03/04 09:49:20;;;;;;;1999.90;999.90;;;4.70;99.90;;;;;;5054961;28;20486;-79
2023/03/04 09:52:12;;;;;;;1999.90;999.90;;;4.80;99.90;;;;;;5053840;28;20045;-79
2023/03/04 09:54:51;;;;;;;1999.90;999.90;;;4.80;99.90;;;;;;5055119;28;20090;-79
2023/03/04 09:57:29;;;;;;;1999.90;999.90;;;4.70;99.90;;;;;;5055436;28;20025;-79
2023/03/04 10:00:19;;;;;;;1999.90;999.90;;;4.70;99.90;;;;;;5054997;28;20025;-79
2023/03/04 10:03:03;;;;;;;1999.90;999.90;;;4.50;99.90;;;;;;5054957;28;20021;-79
2023/03/04 10:05:32;;;;;;;1999.90;999.90;;;4.50;99.90;;;;;;5053390;28;20530;-79
2023/03/04 10:08:02;;;;;;;1999.90;999.90;;;4.40;99.90;;;;;;5054389;28;20029;-79
2023/03/04 10:10:34;;;;;;;1999.90;999.90;;;4.40;99.90;;;;;;5052098;28;20037;-79
2023/03/04 10:13:01;;;;;;;1999.90;999.90;;;4.30;99.90;;;;;;5054102;28;20558;-80
2023/03/04 10:15:42;;;;;;;1999.90;999.90;;;4.20;99.90;;;;;;5055587;28;20069;-78
2023/03/04 10:18:27;;;;;;;1999.90;999.90;;;4.20;99.90;;;;;;5057569;28;20029;-79
2023/03/04 10:21:25;;;;;;;1999.90;999.90;;;4.20;99.90;;;;;;5058975;28;20044;-80
2023/03/04 10:23:53;;;;;;;1999.90;999.90;;;4.00;99.90;;;;;;5059047;28;20116;-79
2023/03/04 10:26:21;;;;;;;1999.90;999.90;;;3.90;99.90;;;;;;5056872;28;20039;-79
2023/03/04 10:28:47;;;;;;;1999.90;999.90;;;4.00;99.90;;;;;;5057963;28;20037;-78
2023/03/04 10:31:35;;;;;;;1999.90;999.90;;;4.00;99.90;;;;;;5068987;28;20030;-81
2023/03/04 10:34:03;;;;;;;1999.90;999.90;;;4.20;99.90;;;;;;5062328;28;21365;-82
2023/03/04 10:36:28;;;;;;;1999.90;999.90;;;4.20;99.90;;;;;;5066893;28;20040;-82
2023/03/04 10:39:01;;;;;;;1999.90;999.90;;;4.20;99.90;;;;;;5069136;28;20067;-81
2023/03/04 10:41:30;;;;;;;1999.90;999.90;;;4.20;99.90;;;;;;5067737;28;20037;-80
2023/03/04 10:43:58;;;;;;;1999.90;999.90;;;4.30;99.90;;;;;;5080822;28;20071;-79
2023/03/04 10:46:25;;;;;;;1999.90;999.90;;;4.30;99.90;;;;;;5062922;28;20100;-76
2023/03/04 10:48:52;;;;;;;1999.90;999.90;;;4.30;99.90;;;;;;5060975;28;20422;-78
2023/03/04 10:51:27;;;;;;;1999.90;999.90;;;4.50;99.90;;;;;;5060298;28;20674;-77
2023/03/04 10:54:13;;;;;;;1999.90;999.90;;;4.30;99.90;;;;;;5064405;28;20564;-76
2023/03/04 10:56:44;;;;;;;1999.90;999.90;;;4.30;99.90;;;;;;5066635;28;20499;-79
2023/03/04 10:59:30;;;;;;;1999.90;999.90;;;4.40;99.90;;;;;;5074795;28;20029;-77
2023/03/04 11:01:58;;;;;;;1999.90;999.90;;;4.40;99.90;;;;;;5068577;28;20029;-77
2023/03/04 11:04:24;;;;;;;1999.90;999.90;;;4.50;99.90;;;;;;5059208;28;20574;-77
2023/03/04 11:06:51;;;;;;;1999.90;999.90;;;4.50;99.90;;;;;;5060824;28;20040;-78
2023/03/04 11:09:29;;;;;;;1999.90;999.90;;;4.40;99.90;;;;;;5060557;28;20045;-78
2023/03/04 11:12:11;;;;;;;;;;;;;;;;;;;;;
2023/03/04 11:14:48;;;;;;;1999.90;999.90;;;4.40;99.90;;;;;;5058666;28;39341;-78
2023/03/04 11:17:27;;;;;;;1999.90;999.90;;;4.30;99.90;;;;;;5048427;28;20040;-77
2023/03/04 11:20:11;;;;;;;1999.90;999.90;;;4.20;99.90;;;;;;5068245;28;20044;-77
2023/03/04 11:22:38;;;;;;;1999.90;999.90;;;4.20;99.90;;;;;;5064045;28;20035;-77
2023/03/04 11:25:21;;;;;;;1999.90;999.90;;;4.00;99.90;;;;;;5063710;28;20048;-78
2023/03/04 11:27:54;;;;;;;1999.90;999.90;;;4.00;99.90;;;;;;5054917;28;20079;-77
2023/03/04 11:30:38;;;;;;;1999.90;999.90;;;4.00;99.90;;;;;;5052596;28;20898;-77
2023/03/04 11:33:18;;;;;;;1999.90;999.90;;;4.00;99.90;;;;;;5071793;28;20491;-76
2023/03/04 11:36:01;;;;;;;1999.90;999.90;;;4.00;99.90;;;;;;5062516;28;20029;-76
2023/03/04 11:38:42;;;;;;;1999.90;999.90;;;4.00;99.90;;;;;;5056900;28;20474;-77
2023/03/04 11:41:18;;;;;;;1999.90;999.90;;;4.00;99.90;;;;;;5043993;28;20062;-77
2023/03/04 11:43:45;;;;;;;1999.90;999.90;;;4.10;99.90;;;;;;5076421;28;20475;-76
2023/03/04 11:46:35;;;;;;;1999.90;999.90;;;4.20;99.90;;;;;;5062939;28;20030;-75
2023/03/04 11:49:06;;;;;;;1999.90;999.90;;;4.20;99.90;;;;;;5075264;28;20077;-76
2023/03/04 11:51:51;;;;;;;1999.90;999.90;;;4.20;99.90;;;;;;5068917;28;20034;-76
2023/03/04 11:54:19;;;;;;;1999.90;999.90;;;4.30;99.90;;;;;;5055600;28;20033;-76
2023/03/04 11:56:49;;;;;;;1999.90;999.90;;;4.40;99.90;;;;;;5055014;28;20061;-75
2023/03/04 11:59:32;;;;;;;1999.90;999.90;;;4.40;99.90;;;;;;5055501;28;20816;-75
2023/03/04 12:02:10;;;;;;;1999.90;999.90;;;4.40;99.90;;;;;;5055203;28;20096;-75
2023/03/04 12:05:11;;;;;;;1999.90;999.90;;;4.40;99.90;;;;;;5049223;28;20049;-75
2023/03/04 12:07:55;;;;;;;1999.90;999.90;;;4.50;99.90;;;;;;5044816;28;20080;-76
2023/03/04 12:10:29;;;;;;;1999.90;999.90;;;4.60;99.90;;;;;;5036230;28;20571;-74